Time;durP1;ratioP1;P1;durP2;ratioP2;P2;SDS_P1;SDS_P2;PMS_P1;PMS_P2;Temp;Humidity;BMP_temperature;BMP_pressure;BME280_temperature;BME280_humidity;BME280_pressure;Samples;Min_cycle;Max_cycle;Signal;HPM_P1;HPM_P2
2022/07/24 00:00:52;;;;;;;;;;;;;;;17.75;56.19;96301.84;6250893;28;19925;-65
2022/07/24 00:03:53;;;;;;;;;;;;;;;17.77;56.91;96299.00;6250547;28;19932;-65
2022/07/24 00:06:54;;;;;;;;;;;;;;;17.81;55.79;96295.91;6250951;28;20310;-65
2022/07/24 00:09:56;;;;;;;;;;;;;;;17.81;55.75;96301.25;6250286;28;19932;-65
2022/07/24 00:13:02;;;;;;;;;;;;;;;17.81;55.87;96298.56;6251062;28;19925;-65
2022/07/24 00:16:05;;;;;;;;;;;;;;;17.81;56.42;96301.25;6249765;28;19925;-65
2022/07/24 00:19:08;;;;;;;;;;;;;;;17.81;56.35;96300.41;6250889;28;19971;-65
2022/07/24 00:22:14;;;;;;;;;;;;;;;17.79;56.10;96307.69;6250752;28;20386;-65
2022/07/24 00:25:15;;;;;;;;;;;;;;;17.77;56.69;96305.16;6249412;28;20406;-65
2022/07/24 00:28:16;;;;;;;;;;;;;;;17.81;55.92;96311.88;6249809;28;19940;-65
2022/07/24 00:31:18;;;;;;;;;;;;;;;17.81;58.24;96309.22;6250279;28;19925;-65
2022/07/24 00:34:22;;;;;;;;;;;;;;;17.85;55.72;96313.22;6250039;28;19925;-65
2022/07/24 00:37:27;;;;;;;;;;;;;;;17.86;55.65;96320.22;6231899;28;19925;-65
2022/07/24 00:40:30;;;;;;;;;;;;;;;17.89;56.31;96319.91;6250264;28;20379;-66
2022/07/24 00:43:31;;;;;;;;;;;;;;;17.95;56.03;96313.94;6249858;28;19940;-64
2022/07/24 00:46:33;;;;;;;;;;;;;;;18.02;56.21;96319.47;6249813;28;20408;-65
2022/07/24 00:49:34;;;;;;;;;;;;;;;18.10;55.78;96331.97;6249037;28;20302;-65
2022/07/24 00:52:40;;;;;;;;;;;;;;;18.14;56.24;96328.81;6249975;28;19925;-65
2022/07/24 00:55:43;;;;;;;;;;;;;;;18.16;56.11;96334.00;6249649;28;20008;-65
2022/07/24 00:58:47;;;;;;;;;;;;;;;18.19;55.99;96336.34;6249332;28;19932;-65
2022/07/24 01:01:53;;;;;;;;;;;;;;;18.25;56.58;96341.03;6248835;28;20417;-66
2022/07/24 01:05:02;;;;;;;;;;;;;;;18.32;55.67;96342.06;6254486;28;19936;-65
2022/07/24 01:08:06;;;;;;;;;;;;;;;18.38;55.89;96336.09;6265166;28;19929;-64
2022/07/24 01:11:10;;;;;;;;;;;;;;;18.47;55.21;96334.28;6274001;28;20338;-65
2022/07/24 01:14:11;;;;;;;;;;;;;;;18.51;55.47;96340.13;6273427;28;20310;-65
2022/07/24 01:17:12;;;;;;;;;;;;;;;18.58;54.99;96335.81;6272992;28;19932;-65
2022/07/24 01:20:14;;;;;;;;;;;;;;;18.63;54.68;96344.16;6273834;28;19932;-65
2022/07/24 01:23:15;;;;;;;;;;;;;;;18.66;55.88;96338.50;6273095;28;19925;-65
2022/07/24 01:26:18;;;;;;;;;;;;;;;18.71;55.40;96338.88;6273778;28;19925;-65
2022/07/24 01:29:20;;;;;;;;;;;;;;;18.77;55.42;96346.22;6273507;28;19932;-66
2022/07/24 01:32:23;;;;;;;;;;;;;;;18.84;55.54;96352.56;6271522;28;19925;-66
2022/07/24 01:35:27;;;;;;;;;;;;;;;18.92;54.78;96348.25;6273575;28;20023;-65
2022/07/24 01:38:30;;;;;;;;;;;;;;;18.98;54.56;96353.75;6273498;28;19924;-66
2022/07/24 01:41:34;;;;;;;;;;;;;;;19.05;54.98;96354.78;6273553;28;19924;-65
2022/07/24 01:44:35;;;;;;;;;;;;;;;19.12;54.21;96360.28;6273234;28;19972;-64
2022/07/24 01:47:38;;;;;;;;;;;;;;;19.19;54.36;96360.44;6273497;28;19929;-65
2022/07/24 01:50:41;;;;;;;;;;;;;;;19.25;54.33;96365.97;6273116;28;19925;-65
2022/07/24 01:53:47;;;;;;;;;;;;;;;19.27;54.45;96363.94;6273212;28;20011;-66
2022/07/24 01:56:48;;;;;;;;;;;;;;;19.33;54.52;96364.28;6272693;28;19932;-65
2022/07/24 01:59:49;;;;;;;;;;;;;;;19.38;54.41;96359.28;6272586;28;19924;-65
2022/07/24 02:02:52;;;;;;;;;;;;;;;19.44;55.46;96363.94;6272225;28;19925;-65
2022/07/24 02:05:58;;;;;;;;;;;;;;;19.50;54.34;96355.28;6272806;28;19925;-64
2022/07/24 02:08:59;;;;;;;;;;;;;;;19.58;53.77;96359.78;6272342;28;20401;-66
2022/07/24 02:12:03;;;;;;;;;;;;;;;19.64;53.44;96365.28;6272724;28;19925;-65
2022/07/24 02:15:06;;;;;;;;;;;;;;;19.73;53.57;96358.16;6272580;28;19925;-65
2022/07/24 02:18:11;;;;;;;;;;;;;;;19.78;53.23;96361.13;6271403;28;19928;-66
2022/07/24 02:21:15;;;;;;;;;;;;;;;19.83;53.23;96358.78;6271962;28;19947;-64
2022/07/24 02:24:18;;;;;;;;;;;;;;;19.93;53.12;96359.44;6271154;28;19924;-65
2022/07/24 02:27:19;;;;;;;;;;;;;;;20.03;53.30;96366.41;6271702;28;19924;-65
2022/07/24 02:30:24;;;;;;;;;;;;;;;20.07;53.94;96365.91;6272182;28;20010;-65
2022/07/24 02:33:25;;;;;;;;;;;;;;;20.12;53.06;96368.88;6271379;28;19971;-64
2022/07/24 02:36:26;;;;;;;;;;;;;;;20.18;53.37;96373.56;6271185;28;20027;-65
2022/07/24 02:39:30;;;;;;;;;;;;;;;20.25;53.58;96376.38;6272391;28;20301;-65
2022/07/24 02:42:31;;;;;;;;;;;;;;;20.29;54.00;96369.66;6271664;28;19971;-65
2022/07/24 02:45:36;;;;;;;;;;;;;;;20.37;53.70;96371.47;6254464;28;20013;-65
2022/07/24 02:48:40;;;;;;;;;;;;;;;20.50;53.24;96366.44;6272164;28;19932;-64
2022/07/24 02:51:41;;;;;;;;;;;;;;;20.59;53.19;96378.78;6271683;28;19925;-65
2022/07/24 02:54:42;;;;;;;;;;;;;;;20.68;53.16;96376.88;6271293;28;20390;-65
2022/07/24 02:57:45;;;;;;;;;;;;;;;20.77;53.03;96383.03;6271740;28;20458;-65
2022/07/24 03:00:49;;;;;;;;;;;;;;;20.87;52.37;96380.97;6271541;28;20411;-66
2022/07/24 03:03:50;;;;;;;;;;;;;;;20.96;52.36;96387.94;6270382;28;19925;-66
2022/07/24 03:06:53;;;;;;;;;;;;;;;21.09;52.02;96387.38;6271360;28;19925;-66
2022/07/24 03:09:55;;;;;;;;;;;;;;;21.16;52.41;96384.81;6270980;28;19928;-65
2022/07/24 03:12:59;;;;;;;;;;;;;;;21.23;52.21;96385.75;6271323;28;19925;-65
2022/07/24 03:16:03;;;;;;;;;;;;;;;21.33;51.54;96394.38;6271198;28;20410;-64
2022/07/24 03:19:04;;;;;;;;;;;;;;;21.41;51.60;96388.19;6270554;28;19936;-65
2022/07/24 03:22:05;;;;;;;;;;;;;;;21.44;51.44;96383.28;6270530;28;19931;-66
2022/07/24 03:25:09;;;;;;;;;;;;;;;21.51;51.76;96386.94;6271257;28;19925;-65
2022/07/24 03:28:13;;;;;;;;;;;;;;;21.62;51.30;96387.50;6270595;28;19925;-65
2022/07/24 03:31:14;;;;;;;;;;;;;;;21.72;50.98;96393.44;6270216;28;19931;-66
2022/07/24 03:34:15;;;;;;;;;;;;;;;21.81;50.57;96391.53;6270210;28;19947;-66
2022/07/24 03:37:21;;;;;;;;;;;;;;;21.91;50.56;96387.59;6270908;28;19925;-65
2022/07/24 03:40:25;;;;;;;;;;;;;;;22.03;50.42;96397.84;6270785;28;20405;-66
2022/07/24 03:43:26;;;;;;;;;;;;;;;22.14;49.84;96389.38;6270317;28;19931;-65
2022/07/24 03:46:28;;;;;;;;;;;;;;;22.24;49.79;96395.31;6269954;28;20064;-65
2022/07/24 03:49:29;;;;;;;;;;;;;;;22.30;49.64;96391.88;6270509;28;19970;-65
2022/07/24 03:52:30;;;;;;;;;;;;;;;22.39;49.46;96400.66;6270602;28;19925;-66
2022/07/24 03:55:36;;;;;;;;;;;;;;;22.47;49.27;96402.44;6270520;28;19970;-66
2022/07/24 03:58:37;;;;;;;;;;;;;;;22.54;49.10;96392.63;6270503;28;20397;-65
2022/07/24 04:01:39;;;;;;;;;;;;;;;22.63;48.87;96391.50;6269626;28;19932;-65
2022/07/24 04:04:42;;;;;;;;;;;;;;;22.72;48.63;96403.78;6269467;28;20421;-67
2022/07/24 04:07:43;;;;;;;;;;;;;;;22.82;48.56;96396.28;6270254;28;19931;-65
2022/07/24 04:10:45;;;;;;;;;;;;;;;22.94;48.34;96388.59;6270160;28;19928;-66
2022/07/24 04:13:53;;;;;;;;;;;;;;;23.11;47.55;96399.97;6270302;28;20023;-66
2022/07/24 04:16:54;;;;;;;;;;;;;;;23.24;47.38;96400.13;6270052;28;19925;-66
2022/07/24 04:20:00;;;;;;;;;;;;;;;23.39;46.94;96405.41;6270408;28;19948;-66
2022/07/24 04:23:04;;;;;;;;;;;;;;;23.52;46.74;96400.19;6270291;28;19925;-66
2022/07/24 04:26:08;;;;;;;;;;;;;;;23.68;46.44;96406.31;6270157;28;20015;-66
2022/07/24 04:29:10;;;;;;;;;;;;;;;23.80;46.33;96398.59;6268804;28;19929;-65
2022/07/24 04:32:11;;;;;;;;;;;;;;;23.95;45.84;96396.66;6269927;28;19932;-66
2022/07/24 04:35:14;;;;;;;;;;;;;;;24.04;45.42;96392.78;6268966;28;20295;-66
2022/07/24 04:38:18;;;;;;;;;;;;;;;24.14;45.11;96392.44;6270149;28;19924;-65
2022/07/24 04:41:19;;;;;;;;;;;;;;;24.36;44.37;96396.72;6273709;28;19925;-66
2022/07/24 04:44:25;;;;;;;;;;;;;;;25.44;42.03;96397.00;6274371;28;19931;-66
2022/07/24 04:47:27;;;;;;;;;;;;;;;28.49;36.48;96405.00;6273334;28;20019;-65
2022/07/24 04:50:28;;;;;;;;;;;;;;;31.50;32.21;96408.19;6273714;28;19940;-65
2022/07/24 04:53:30;;;;;;;;;;;;;;;34.18;29.02;96409.69;6273859;28;19924;-65
2022/07/24 04:56:37;;;;;;;;;;;;;;;36.74;26.16;96410.53;6273940;28;19925;-65
2022/07/24 04:59:38;;;;;;;;;;;;;;;39.35;24.85;96419.69;6273985;28;19925;-65
2022/07/24 05:02:41;;;;;;;;;;;;;;;42.33;22.81;96416.69;6273626;28;20424;-64
2022/07/24 05:05:44;;;;;;;;;;;;;;;45.08;18.48;96419.75;6273150;28;20022;-65
2022/07/24 05:08:45;;;;;;;;;;;;;;;47.28;20.13;96419.19;6273251;28;19924;-66
2022/07/24 05:11:50;;;;;;;;;;;;;;;49.05;18.49;96419.22;6273885;28;20006;-66
2022/07/24 05:14:51;;;;;;;;;;;;;;;50.57;17.39;96422.25;6273928;28;20422;-65
2022/07/24 05:17:54;;;;;;;;;;;;;;;51.77;16.44;96421.09;6273547;28;19924;-66
2022/07/24 05:20:56;;;;;;;;;;;;;;;52.28;15.97;96412.13;6273497;28;19925;-66
2022/07/24 05:24:01;;;;;;;;;;;;;;;53.35;14.54;96416.06;6273897;28;20327;-65
2022/07/24 05:27:03;;;;;;;;;;;;;;;54.29;13.72;96417.38;6273494;28;19932;-66
2022/07/24 05:30:04;;;;;;;;;;;;;;;54.89;13.51;96419.56;6272408;28;19935;-65
2022/07/24 05:33:05;;;;;;;;;;;;;;;55.63;12.65;96416.38;6272655;28;19928;-65
2022/07/24 05:36:11;;;;;;;;;;;;;;;56.06;12.25;96419.06;6273534;28;20015;-66
2022/07/24 05:39:12;;;;;;;;;;;;;;;56.71;8.55;96411.94;6272989;28;19925;-65
2022/07/24 05:42:13;;;;;;;;;;;;;;;57.23;11.33;96420.44;6273465;28;19924;-65
2022/07/24 05:45:17;;;;;;;;;;;;;;;57.35;6.90;96411.44;6273523;28;20469;-66
2022/07/24 05:48:23;;;;;;;;;;;;;;;57.97;8.74;96414.47;6272849;28;19971;-66
2022/07/24 05:51:26;;;;;;;;;;;;;;;58.96;10.20;96425.69;6274876;28;19925;-66
2022/07/24 05:54:29;;;;;;;;;;;;;;;59.64;9.06;96423.78;6294816;28;19948;-66
2022/07/24 05:57:31;;;;;;;;;;;;;;;59.62;8.14;96421.34;6302032;28;20021;-65
2022/07/24 06:00:32;;;;;;;;;;;;;;;59.19;8.46;96412.78;6302598;28;19956;-65
2022/07/24 06:03:36;;;;;;;;;;;;;;;58.70;5.53;96410.31;6302258;28;19924;-66
2022/07/24 06:06:40;;;;;;;;;;;;;;;58.89;8.37;96414.44;6299815;28;19985;-65
2022/07/24 06:09:45;;;;;;;;;;;;;;;59.33;7.20;96415.41;6303104;28;19905;-65
2022/07/24 06:12:47;;;;;;;;;;;;;;;59.78;7.99;96417.81;6302230;28;19993;-65
2022/07/24 06:15:53;;;;;;;;;;;;;;;59.79;6.84;96413.72;6300578;28;19924;-65
2022/07/24 06:18:55;;;;;;;;;;;;;;;59.96;6.75;96412.59;6302461;28;19905;-65
2022/07/24 06:22:00;;;;;;;;;;;;;;;59.78;6.92;96412.13;6302514;28;19955;-66
2022/07/24 06:25:07;;;;;;;;;;;;;;;59.66;6.57;96398.59;6283056;28;19924;-64
2022/07/24 06:28:12;;;;;;;;;;;;;;;60.64;6.84;96402.63;6283577;28;19927;-66
2022/07/24 06:31:14;;;;;;;;;;;;;;;61.36;5.96;96408.66;6282978;28;19935;-66
2022/07/24 06:34:23;;;;;;;;;;;;;;;60.62;5.76;96407.97;6268182;28;19932;-66
2022/07/24 06:37:27;;;;;;;;;;;;;;;59.00;6.26;96397.28;6282716;28;19932;-65
2022/07/24 06:40:31;;;;;;;;;;;;;;;58.97;6.39;96396.13;6283272;28;20011;-65
2022/07/24 06:43:36;;;;;;;;;;;;;;;60.21;5.86;96391.41;6283767;28;19924;-66
2022/07/24 06:46:44;;;;;;;;;;;;;;;61.41;5.43;96389.00;6287832;28;19970;-66
2022/07/24 07:03:52;;;;;;;;;;;;;;;62.03;4.52;96390.94;7505346;22;19939;-66
2022/07/24 07:06:55;;;;;;;;;;;;;;;61.78;4.61;96388.78;6255103;28;19930;-65
2022/07/24 07:10:04;;;;;;;;;;;;;;;61.87;5.20;96392.63;6253838;28;19925;-65
2022/07/24 07:13:12;;;;;;;;;;;;;;;61.44;5.12;96388.09;6252029;28;19925;-65
2022/07/24 07:16:16;;;;;;;;;;;;;;;60.92;5.22;96373.97;6250687;28;19921;-66
2022/07/24 07:19:18;;;;;;;;;;;;;;;60.73;5.03;96367.94;6251628;28;19925;-66
2022/07/24 07:22:27;;;;;;;;;;;;;;;61.20;5.25;96366.75;6250052;28;19928;-65
2022/07/24 07:25:31;;;;;;;;;;;;;;;62.26;4.17;96373.59;6249946;28;19925;-65
2022/07/24 07:28:36;;;;;;;;;;;;;;;62.90;4.10;96372.81;6254068;28;19932;-65
2022/07/24 07:31:39;;;;;;;;;;;;;;;62.81;4.33;96385.72;6254860;28;19933;-65
2022/07/24 07:34:43;;;;;;;;;;;;;;;62.74;4.18;96390.84;6254144;28;19910;-66
2022/07/24 07:37:51;;;;;;;;;;;;;;;63.29;4.31;96380.06;6254993;28;19940;-64
2022/07/24 07:40:58;;;;;;;;;;;;;;;63.51;4.26;96390.69;6255182;28;20001;-65
2022/07/24 07:44:06;;;;;;;;;;;;;;;63.19;3.71;96379.13;6254360;28;19970;-65
2022/07/24 07:47:12;;;;;;;;;;;;;;;62.05;4.55;96375.00;6253442;28;20000;-65
2022/07/24 07:50:14;;;;;;;;;;;;;;;61.59;4.94;96364.94;6250559;28;19984;-65
2022/07/24 07:53:20;;;;;;;;;;;;;;;61.97;3.95;96356.53;6250117;28;19925;-65
2022/07/24 07:56:30;;;;;;;;;;;;;;;61.70;4.74;96354.84;6251122;28;19933;-65
2022/07/24 07:59:34;;;;;;;;;;;;;;;61.46;4.79;96359.16;6249496;28;19925;-65
2022/07/24 08:02:39;;;;;;;;;;;;;;;61.15;4.23;96358.75;6233589;28;19925;-65
2022/07/24 08:05:44;;;;;;;;;;;;;;;61.35;4.48;96352.97;6230456;28;19980;-65
2022/07/24 08:08:46;;;;;;;;;;;;;;;60.88;4.12;96351.31;6221830;28;20319;-65
2022/07/24 08:11:51;;;;;;;;;;;;;;;60.66;4.35;96344.53;6219506;28;19933;-65
2022/07/24 08:14:55;;;;;;;;;;;;;;;61.19;4.45;96343.22;6223827;28;19926;-65
2022/07/24 08:17:58;;;;;;;;;;;;;;;61.76;4.26;96340.06;6231116;28;19936;-65
2022/07/24 08:21:01;;;;;;;;;;;;;;;62.66;3.68;96340.97;6251169;28;19925;-65
2022/07/24 08:24:05;;;;;;;;;;;;;;;63.15;3.60;96346.31;6253148;28;19925;-65
2022/07/24 08:27:11;;;;;;;;;;;;;;;62.10;3.84;96336.63;6236755;28;19925;-65
2022/07/24 08:30:15;;;;;;;;;;;;;;;60.95;4.36;96331.19;6227204;28;19988;-65
2022/07/24 08:33:19;;;;;;;;;;;;;;;61.13;3.93;96321.44;6225628;28;20307;-65
2022/07/24 08:36:21;;;;;;;;;;;;;;;61.42;3.81;96315.78;6225542;28;20288;-65
2022/07/24 08:39:24;;;;;;;;;;;;;;;61.92;3.86;96314.34;6225807;28;19968;-65
2022/07/24 08:42:27;;;;;;;;;;;;;;;62.07;3.58;96326.91;6225462;28;19925;-65
2022/07/24 08:45:33;;;;;;;;;;;;;;;61.26;3.65;96320.25;6225499;28;19925;-64
2022/07/24 08:48:42;;;;;;;;;;;;;;;60.04;3.52;96304.53;6225150;28;19926;-65
2022/07/24 08:51:44;;;;;;;;;;;;;;;60.13;3.62;96313.25;6225328;28;20399;-65
2022/07/24 08:54:48;;;;;;;;;;;;;;;59.86;4.29;96294.38;6224951;28;20260;-65
2022/07/24 08:57:51;;;;;;;;;;;;;;;59.60;4.01;96292.47;6224939;28;20397;-65
2022/07/24 09:00:54;;;;;;;;;;;;;;;59.44;4.25;96301.69;6224852;28;19925;-65
2022/07/24 09:03:58;;;;;;;;;;;;;;;59.79;4.15;96300.16;6224625;28;19929;-65
2022/07/24 09:07:03;;;;;;;;;;;;;;;59.85;4.06;96298.44;6224717;28;19925;-65
2022/07/24 09:10:06;;;;;;;;;;;;;;;59.03;4.05;96295.16;6224549;28;19925;-64
2022/07/24 09:13:16;;;;;;;;;;;;;;;58.33;4.27;96280.91;6224440;28;19925;-66
2022/07/24 09:16:22;;;;;;;;;;;;;;;57.94;4.36;96279.41;6224286;28;19925;-66
2022/07/24 09:19:25;;;;;;;;;;;;;;;56.41;5.37;96277.69;6224141;28;20391;-65
2022/07/24 09:22:34;;;;;;;;;;;;;;;56.07;5.51;96271.06;6224295;28;19925;-65
2022/07/24 09:25:37;;;;;;;;;;;;;;;56.64;4.85;96265.84;6223508;28;19929;-65
2022/07/24 09:28:52;;;;;;;;;;;;;;;56.23;5.01;96274.22;6222967;28;19925;-65
2022/07/24 09:31:57;;;;;;;;;;;;;;;55.46;5.48;96266.47;6224248;28;19925;-66
2022/07/24 09:34:59;;;;;;;;;;;;;;;55.27;5.70;96258.47;6222918;28;19925;-66
2022/07/24 09:38:03;;;;;;;;;;;;;;;55.97;5.37;96259.44;6223843;28;20024;-65
2022/07/24 09:41:07;;;;;;;;;;;;;;;56.28;4.56;96270.94;6223847;28;19932;-65
2022/07/24 09:44:12;;;;;;;;;;;;;;;55.93;4.81;96253.00;6223943;28;19984;-64
2022/07/24 09:47:16;;;;;;;;;;;;;;;55.66;5.25;96247.06;6223775;28;19925;-65
2022/07/24 09:50:22;;;;;;;;;;;;;;;55.72;4.80;96251.09;6223670;28;19925;-65
2022/07/24 09:53:27;;;;;;;;;;;;;;;56.11;4.75;96249.25;6223484;28;20307;-65
2022/07/24 09:56:31;;;;;;;;;;;;;;;55.88;5.23;96247.75;6206388;28;19929;-65
2022/07/24 09:59:36;;;;;;;;;;;;;;;55.84;5.12;96251.84;6223345;28;19926;-65
2022/07/24 10:02:43;;;;;;;;;;;;;;;54.86;5.61;96244.84;6224078;28;19926;-65
2022/07/24 10:05:46;;;;;;;;;;;;;;;54.04;5.48;96245.59;6221674;28;20347;-66
2022/07/24 10:08:50;;;;;;;;;;;;;;;52.73;5.96;96236.09;6223638;28;20337;-63
2022/07/24 10:11:56;;;;;;;;;;;;;;;52.30;6.25;96246.94;6223330;28;19925;-64
2022/07/24 10:15:01;;;;;;;;;;;;;;;52.39;6.12;96238.22;6223145;28;19925;-66
2022/07/24 10:18:09;;;;;;;;;;;;;;;51.87;6.33;96232.47;6223632;28;19932;-65
2022/07/24 10:21:14;;;;;;;;;;;;;;;51.13;6.76;96235.91;6223054;28;19922;-64
2022/07/24 10:24:33;;;;;;;;;;;;;;;51.18;6.81;96233.56;6223349;28;19952;-66
2022/07/24 10:27:39;;;;;;;;;;;;;;;51.43;6.66;96233.13;6223176;28;19925;-65
2022/07/24 10:30:42;;;;;;;;;;;;;;;51.62;6.58;96227.34;6223125;28;19925;-65
2022/07/24 10:33:46;;;;;;;;;;;;;;;51.81;6.58;96229.19;6222457;28;20288;-65
2022/07/24 10:37:10;;;;;;;;;;;;;;;51.25;6.98;96220.88;6222266;28;19932;-65
2022/07/24 10:40:11;;;;;;;;;;;;;;;50.36;7.37;96214.69;6202643;28;19955;-66
2022/07/24 10:43:19;;;;;;;;;;;;;;;50.08;7.70;96221.38;6222754;28;20016;-66
2022/07/24 10:46:23;;;;;;;;;;;;;;;49.34;7.75;96219.53;6220813;28;20000;-65
2022/07/24 10:49:46;;;;;;;;;;;;;;;48.96;8.28;96215.50;6222662;28;19929;-66
2022/07/24 10:52:50;;;;;;;;;;;;;;;48.42;8.36;96216.19;6222376;28;19925;-65
2022/07/24 10:56:13;;;;;;;;;;;;;;;48.42;8.08;96213.41;6222438;28;19929;-66
2022/07/24 10:59:31;;;;;;;;;;;;;;;48.63;8.38;96209.50;6222695;28;20387;-66
2022/07/24 11:02:39;;;;;;;;;;;;;;;48.48;8.48;96209.16;6221252;28;20391;-66
2022/07/24 11:05:41;;;;;;;;;;;;;;;47.87;8.50;96206.78;6221913;28;20012;-65
2022/07/24 11:08:45;;;;;;;;;;;;;;;47.28;8.99;96191.59;6222208;28;20031;-65
2022/07/24 11:11:51;;;;;;;;;;;;;;;47.27;8.94;96197.50;6222124;28;20387;-65
2022/07/24 11:15:53;;;;;;;;;;;;;;;46.84;9.16;96198.97;6222111;28;19925;-65
2022/07/24 11:18:25;;;;;;;;;;;;;;;46.12;9.75;96189.13;6221324;28;20339;-66
2022/07/24 11:21:29;;;;;;;;;;;;;;;45.70;9.87;96192.00;6221783;28;19925;-65
2022/07/24 11:24:32;;;;;;;;;;;;;;;45.20;10.31;96190.19;6222158;28;19932;-66
2022/07/24 11:27:46;;;;;;;;;;;;;;;45.27;10.31;96184.09;6221976;28;19932;-65
2022/07/24 11:30:50;;;;;;;;;;;;;;;45.46;9.89;96192.69;6221829;28;19929;-66
2022/07/24 11:33:55;;;;;;;;;;;;;;;45.42;9.90;96191.78;6221713;28;20323;-66
2022/07/24 11:36:58;;;;;;;;;;;;;;;45.38;10.01;96188.06;6221244;28;20023;-66
2022/07/24 11:40:03;;;;;;;;;;;;;;;45.29;10.13;96181.75;6221460;28;19925;-66
2022/07/24 11:43:09;;;;;;;;;;;;;;;45.15;10.01;96181.25;6221636;28;19925;-66
2022/07/24 11:46:12;;;;;;;;;;;;;;;44.71;10.25;96189.84;6221472;28;19925;-65
2022/07/24 11:49:15;;;;;;;;;;;;;;;44.49;10.75;96188.19;6220659;28;19925;-66
2022/07/24 11:52:27;;;;;;;;;;;;;;;44.12;10.88;96178.72;6220402;28;20020;-65
2022/07/24 11:55:31;;;;;;;;;;;;;;;43.31;11.27;96182.31;6221258;28;19925;-65
2022/07/24 11:58:38;;;;;;;;;;;;;;;42.54;11.66;96179.94;6221566;28;19925;-66
2022/07/24 12:01:42;;;;;;;;;;;;;;;42.12;11.91;96171.16;6221468;28;20303;-66
2022/07/24 12:04:45;;;;;;;;;;;;;;;41.89;12.08;96169.56;6221290;28;19925;-65
2022/07/24 12:07:47;;;;;;;;;;;;;;;41.64;12.36;96171.06;6220061;28;19988;-65
2022/07/24 12:10:56;;;;;;;;;;;;;;;41.52;12.37;96168.88;6221170;28;19925;-65
2022/07/24 12:13:59;;;;;;;;;;;;;;;41.46;12.38;96173.69;6221161;28;19925;-66
2022/07/24 12:17:03;;;;;;;;;;;;;;;41.29;12.66;96165.31;6221075;28;20310;-66
2022/07/24 12:20:06;;;;;;;;;;;;;;;41.07;12.93;96157.84;6221090;28;20391;-65
2022/07/24 12:23:16;;;;;;;;;;;;;;;40.83;12.85;96163.63;6221308;28;19925;-65
2022/07/24 12:26:21;;;;;;;;;;;;;;;40.74;13.07;96163.53;6220970;28;19926;-66
2022/07/24 12:29:26;;;;;;;;;;;;;;;40.65;13.00;96156.31;6220766;28;19925;-65
2022/07/24 12:32:29;;;;;;;;;;;;;;;40.53;13.08;96148.53;6221051;28;19926;-65
2022/07/24 12:35:34;;;;;;;;;;;;;;;40.51;13.05;96146.09;6220604;28;19925;-66
2022/07/24 12:38:59;;;;;;;;;;;;;;;40.28;13.24;96152.66;6220955;28;19926;-66
2022/07/24 12:42:04;;;;;;;;;;;;;;;40.09;13.35;96150.81;6221031;28;20016;-66
2022/07/24 12:45:09;;;;;;;;;;;;;;;40.09;13.44;96145.31;6220646;28;19925;-66
2022/07/24 12:48:18;;;;;;;;;;;;;;;40.04;13.67;96148.16;6220856;28;19921;-66
2022/07/24 12:51:21;;;;;;;;;;;;;;;39.89;13.58;96138.25;6220696;28;19925;-66
2022/07/24 12:54:27;;;;;;;;;;;;;;;39.49;14.15;96145.31;6220338;28;19932;-66
2022/07/24 12:57:31;;;;;;;;;;;;;;;38.68;15.01;96145.47;6220613;28;20382;-66
2022/07/24 13:00:34;;;;;;;;;;;;;;;37.81;15.76;96132.75;6222024;28;19925;-66
2022/07/24 13:03:37;;;;;;;;;;;;;;;37.08;15.76;96137.25;6225146;28;20027;-66
2022/07/24 13:06:42;;;;;;;;;;;;;;;36.48;16.29;96139.28;6224817;28;20007;-65
2022/07/24 13:09:46;;;;;;;;;;;;;;;36.07;17.05;96134.00;6224961;28;19926;-65
2022/07/24 13:12:47;;;;;;;;;;;;;;;35.75;16.81;96126.13;6224282;28;20012;-65
2022/07/24 13:15:51;;;;;;;;;;;;;;;35.57;17.20;96138.50;6224749;28;19995;-66
2022/07/24 13:18:54;;;;;;;;;;;;;;;35.40;17.45;96137.97;6224866;28;19932;-65
2022/07/24 13:21:56;;;;;;;;;;;;;;;35.10;17.98;96145.06;6224600;28;19922;-65
2022/07/24 13:24:57;;;;;;;;;;;;;;;34.85;18.29;96152.16;6224366;28;19933;-66
2022/07/24 13:28:02;;;;;;;;;;;;;;;34.60;18.57;96154.84;6224572;28;19929;-65
2022/07/24 13:31:04;;;;;;;;;;;;;;;34.39;18.87;96141.09;6224401;28;19925;-65
2022/07/24 13:34:10;;;;;;;;;;;;;;;34.31;19.36;96147.09;6224364;28;19990;-65
2022/07/24 13:37:11;;;;;;;;;;;;;;;34.10;19.38;96148.09;6223723;28;19979;-65
2022/07/24 13:40:14;;;;;;;;;;;;;;;33.94;19.67;96149.88;6223921;28;19926;-65
2022/07/24 13:43:15;;;;;;;;;;;;;;;33.80;20.21;96146.84;6223684;28;19932;-65
2022/07/24 13:46:18;;;;;;;;;;;;;;;33.68;19.91;96143.47;6223694;28;20307;-65
2022/07/24 13:49:19;;;;;;;;;;;;;;;33.59;19.88;96139.63;6224012;28;19926;-66
2022/07/24 13:52:25;;;;;;;;;;;;;;;33.57;20.40;96147.25;6223803;28;19926;-66
2022/07/24 13:55:26;;;;;;;;;;;;;;;33.45;20.60;96140.03;6223279;28;19930;-66
2022/07/24 13:58:30;;;;;;;;;;;;;;;33.31;21.05;96145.13;6223561;28;19929;-65
2022/07/24 14:01:31;;;;;;;;;;;;;;;33.15;21.58;96139.81;6222893;28;19931;-67
2022/07/24 14:04:36;;;;;;;;;;;;;;;32.98;21.34;96146.22;6223574;28;19926;-66
2022/07/24 14:07:39;;;;;;;;;;;;;;;32.86;21.65;96148.28;6223243;28;19936;-65
2022/07/24 14:10:48;;;;;;;;;;;;;;;32.80;21.97;96146.59;6223347;28;19931;-66
2022/07/24 14:13:50;;;;;;;;;;;;;;;32.76;21.60;96142.75;6222590;28;19980;-66
2022/07/24 14:16:56;;;;;;;;;;;;;;;32.64;22.01;96151.91;6223157;28;19925;-65
2022/07/24 14:19:57;;;;;;;;;;;;;;;32.55;21.55;96153.41;6223536;28;20425;-66
2022/07/24 14:23:01;;;;;;;;;;;;;;;32.51;22.06;96146.84;6223242;28;19925;-66
2022/07/24 14:26:02;;;;;;;;;;;;;;;32.48;21.71;96147.38;6222877;28;19929;-66
2022/07/24 14:29:08;;;;;;;;;;;;;;;32.39;22.06;96141.53;6222363;28;20391;-66
2022/07/24 14:32:09;;;;;;;;;;;;;;;32.36;22.25;96143.94;6222866;28;19921;-67
2022/07/24 14:35:10;;;;;;;;;;;;;;;32.32;22.34;96137.34;6222518;28;19925;-66
2022/07/24 14:38:14;;;;;;;;;;;;;;;32.22;22.20;96143.50;6222439;28;19925;-66
2022/07/24 14:41:18;;;;;;;;;;;;;;;32.10;22.87;96143.66;6222639;28;19922;-66
2022/07/24 14:44:21;;;;;;;;;;;;;;;31.91;22.73;96143.13;6222369;28;19926;-66
2022/07/24 14:47:22;;;;;;;;;;;;;;;31.79;23.00;96138.84;6221584;28;19925;-67
2022/07/24 14:50:26;;;;;;;;;;;;;;;31.71;23.21;96132.78;6222646;28;19925;-67
2022/07/24 14:53:30;;;;;;;;;;;;;;;31.63;23.12;96133.22;6221953;28;20300;-66
2022/07/24 14:56:31;;;;;;;;;;;;;;;31.54;23.26;96132.81;6221943;28;19932;-66
2022/07/24 14:59:38;;;;;;;;;;;;;;;31.41;23.01;96132.34;6222067;28;19925;-66
2022/07/24 15:02:40;;;;;;;;;;;;;;;31.24;23.21;96138.59;6221599;28;19932;-66
2022/07/24 15:05:41;;;;;;;;;;;;;;;31.07;23.81;96132.34;6221358;28;19929;-66
2022/07/24 15:08:44;;;;;;;;;;;;;;;30.91;23.43;96138.59;6221913;28;19929;-67
2022/07/24 15:11:45;;;;;;;;;;;;;;;30.74;23.95;96136.66;6221923;28;19937;-67
2022/07/24 15:14:50;;;;;;;;;;;;;;;30.61;24.37;96129.66;6221907;28;19925;-66
2022/07/24 15:17:51;;;;;;;;;;;;;;;30.52;23.89;96141.16;6222156;28;19926;-67
2022/07/24 15:20:54;;;;;;;;;;;;;;;30.55;24.14;96136.06;6222122;28;19958;-67
2022/07/24 15:24:00;;;;;;;;;;;;;;;30.49;24.36;96141.63;6221779;28;19969;-66
2022/07/24 15:27:04;;;;;;;;;;;;;;;30.33;24.33;96141.34;6221534;28;19933;-66
2022/07/24 15:30:15;;;;;;;;;;;;;;;30.10;25.10;96135.97;6221717;28;19933;-67
2022/07/24 15:33:18;;;;;;;;;;;;;;;29.84;25.19;96134.63;6221830;28;19925;-68
2022/07/24 15:36:21;;;;;;;;;;;;;;;29.59;25.49;96137.59;6221842;28;19948;-67
2022/07/24 15:39:27;;;;;;;;;;;;;;;29.38;25.98;96137.13;6221630;28;20388;-66
2022/07/24 15:42:31;;;;;;;;;;;;;;;29.18;26.55;96142.88;6221746;28;19925;-65
2022/07/24 15:45:34;;;;;;;;;;;;;;;28.99;26.89;96134.03;6221417;28;20312;-67
2022/07/24 15:48:37;;;;;;;;;;;;;;;28.81;26.60;96140.34;6220889;28;20273;-66
2022/07/24 15:51:39;;;;;;;;;;;;;;;28.62;26.88;96134.19;6220939;28;19948;-67
2022/07/24 15:54:40;;;;;;;;;;;;;;;28.45;27.20;96144.03;6221238;28;19925;-66
2022/07/24 15:57:43;;;;;;;;;;;;;;;28.31;27.54;96147.91;6221093;28;19926;-65
2022/07/24 16:00:44;;;;;;;;;;;;;;;28.19;27.73;96145.16;6220536;28;19932;-67
2022/07/24 16:03:47;;;;;;;;;;;;;;;28.08;28.37;96149.47;6220932;28;19933;-65
2022/07/24 16:06:51;;;;;;;;;;;;;;;27.92;28.86;96147.38;6221365;28;19926;-66
2022/07/24 16:09:56;;;;;;;;;;;;;;;27.79;28.59;96142.09;6221330;28;19925;-67
2022/07/24 16:13:00;;;;;;;;;;;;;;;27.66;29.20;96157.44;6221083;28;20399;-67
2022/07/24 16:16:03;;;;;;;;;;;;;;;27.53;29.79;96155.66;6220865;28;19991;-68